createdAt,value
2022-11-25T09:05:16.783Z,31.30
2022-11-25T09:13:40.114Z,16.90
2022-11-25T09:22:03.247Z,15.00
2022-11-25T09:30:27.601Z,16.30
2022-11-25T09:38:51.927Z,23.60
2022-11-25T09:47:54.366Z,18.90
2022-11-25T09:56:33.088Z,23.40
2022-11-25T10:05:18.703Z,23.70
2022-11-25T10:13:52.763Z,40.30
2022-11-25T10:22:42.833Z,27.80
2022-11-25T10:31:18.408Z,22.90
2022-11-25T10:39:41.470Z,22.40
2022-11-25T10:48:15.052Z,23.30
2022-11-25T10:56:51.861Z,27.30
2022-11-25T11:05:18.422Z,22.60
2022-11-25T11:13:41.673Z,20.90
2022-11-25T11:22:18.020Z,29.80
2022-11-25T11:30:56.622Z,25.10
2022-11-25T11:39:47.718Z,26.70
2022-11-25T11:48:29.493Z,28.40
2022-11-25T11:57:15.031Z,26.40
2022-11-25T12:05:38.862Z,24.80
2022-11-25T12:14:11.975Z,26.70
2022-11-25T12:22:47.347Z,28.30
2022-11-25T12:32:03.896Z,35.00
2022-11-25T12:40:55.671Z,36.80
2022-11-25T12:49:27.555Z,28.60
2022-11-25T12:58:23.089Z,30.00
2022-11-25T13:07:04.855Z,33.60
2022-11-25T13:15:31.585Z,32.50
2022-11-25T13:23:58.851Z,31.70
2022-11-25T13:32:37.881Z,33.70
2022-11-25T13:41:21.232Z,39.10
2022-11-25T13:49:55.326Z,40.50
2022-11-25T13:58:33.323Z,40.90
2022-11-25T14:07:20.925Z,45.60
2022-11-25T14:16:08.491Z,38.80
2022-11-25T14:24:39.834Z,45.00
2022-11-25T14:33:05.564Z,49.90
2022-11-25T14:41:32.761Z,48.70
2022-11-25T14:58:50.721Z,60.90
2022-11-25T15:15:45.685Z,62.30
2022-11-25T15:24:25.468Z,49.60
2022-11-25T15:32:49.728Z,48.30
2022-11-25T15:41:34.532Z,53.50
2022-11-25T15:50:03.630Z,52.90
2022-11-25T15:58:26.682Z,55.20
2022-11-25T16:06:57.445Z,48.00
2022-11-25T16:15:48.141Z,69.20
2022-11-25T16:24:35.434Z,51.30
2022-11-25T16:32:58.927Z,49.80
2022-11-25T16:41:25.325Z,63.90
2022-11-25T16:49:48.772Z,59.80
2022-11-25T16:58:19.898Z,55.80
2022-11-25T17:06:50.577Z,68.70
2022-11-25T17:15:35.986Z,66.70
2022-11-25T17:24:02.899Z,54.90
2022-11-25T17:32:26.927Z,49.90
2022-11-25T17:40:50.792Z,47.10
2022-11-25T17:49:15.592Z,44.70
2022-11-25T17:57:39.397Z,47.20
2022-11-25T18:06:03.263Z,45.00
2022-11-25T18:14:33.477Z,49.50
2022-11-25T18:22:56.524Z,49.50
2022-11-25T18:31:19.695Z,43.40
2022-11-25T18:39:43.776Z,44.40
2022-11-25T18:48:17.293Z,53.30
2022-11-25T18:56:41.321Z,53.80
2022-11-25T19:05:20.013Z,44.10
2022-11-25T19:13:48.632Z,43.70
2022-11-25T19:22:16.024Z,46.40
2022-11-25T19:30:39.420Z,40.40
2022-11-25T19:39:02.436Z,40.60
2022-11-25T19:47:27.489Z,45.90
2022-11-25T19:55:51.340Z,51.60
2022-11-25T20:04:20.338Z,45.80
2022-11-25T20:12:43.611Z,41.50
2022-11-25T20:21:06.715Z,40.40
2022-11-25T20:29:30.747Z,51.30
2022-11-25T20:37:54.583Z,40.10
2022-11-25T20:46:25.244Z,43.00
2022-11-25T20:54:48.329Z,41.70
2022-11-25T21:03:11.390Z,45.20
2022-11-25T21:11:34.638Z,41.00
2022-11-25T21:19:58.672Z,42.50
2022-11-25T21:28:26.717Z,43.60
2022-11-25T21:36:53.215Z,49.40
2022-11-25T21:45:17.322Z,46.90
2022-11-25T21:53:40.639Z,45.60
2022-11-25T22:02:15.964Z,44.70
2022-11-25T22:10:41.929Z,46.20
2022-11-25T22:19:04.923Z,47.40
2022-11-25T22:27:36.417Z,42.80
2022-11-25T22:35:59.941Z,39.20
2022-11-25T22:44:33.084Z,34.40
2022-11-25T22:52:57.732Z,37.90
2022-11-25T23:01:20.729Z,41.10
2022-11-25T23:09:44.838Z,36.40
2022-11-25T23:18:14.852Z,40.90
2022-11-25T23:26:37.888Z,39.50
2022-11-25T23:35:01.072Z,33.80
2022-11-25T23:43:24.026Z,35.20
2022-11-25T23:51:47.312Z,37.90
